Terminal Aerodrome Forecast
Issued by NWS

Home | Current Version | Previous Version | Graphics & Text | Print | Product List | Glossary On
Versions: 1 2 3 4 5 6 7 8 9 10 11 12 13 14 15 16
000
FTUS43 KGRB 162325
TAFRHI
TAF
KRHI 162325Z 1700/1724 32008G14KT P6SM -SHSN SCT015 OVC028
      TEMPO 1700/1704 3SM -SN BKN015
     FM170400 32008KT P6SM -SHSN OVC011
     FM171400 32009KT P6SM BKN019
     FM171800 33008KT P6SM BKN028=

USA.gov is the U.S. government's official web portal to all federal, state and local government web resources and services.